sensor_id;sensor_type;location;lat;lon;timestamp;temperature;humidity
26336;DHT22;14047;50.936;4.654;2023-03-01T00:01:27;0.30;99.90
26336;DHT22;14047;50.936;4.654;2023-03-01T00:03:54;0.30;99.90
26336;DHT22;14047;50.936;4.654;2023-03-01T00:06:21;0.20;99.90
26336;DHT22;14047;50.936;4.654;2023-03-01T00:08:48;0.20;99.90
26336;DHT22;14047;50.936;4.654;2023-03-01T00:11:24;0.20;99.90
26336;DHT22;14047;50.936;4.654;2023-03-01T00:13:53;0.10;99.90
26336;DHT22;14047;50.936;4.654;2023-03-01T00:16:31;0.10;99.90
26336;DHT22;14047;50.936;4.654;2023-03-01T00:18:59;-0.20;99.90
26336;DHT22;14047;50.936;4.654;2023-03-01T00:21:26;-0.50;99.90
26336;DHT22;14047;50.936;4.654;2023-03-01T00:23:52;-0.70;99.90
26336;DHT22;14047;50.936;4.654;2023-03-01T00:26:20;-0.80;99.90
26336;DHT22;14047;50.936;4.654;2023-03-01T00:28:47;-0.80;99.90
26336;DHT22;14047;50.936;4.654;2023-03-01T00:31:16;-0.90;99.90
26336;DHT22;14047;50.936;4.654;2023-03-01T00:33:43;-0.90;99.90
26336;DHT22;14047;50.936;4.654;2023-03-01T00:36:10;-0.90;99.90
26336;DHT22;14047;50.936;4.654;2023-03-01T00:38:42;-0.80;99.90
26336;DHT22;14047;50.936;4.654;2023-03-01T00:41:11;-0.90;99.90
26336;DHT22;14047;50.936;4.654;2023-03-01T00:43:37;-0.90;99.90
26336;DHT22;14047;50.936;4.654;2023-03-01T00:46:12;-0.80;99.90
26336;DHT22;14047;50.936;4.654;2023-03-01T00:48:39;-0.70;99.90
26336;DHT22;14047;50.936;4.654;2023-03-01T00:51:31;-0.70;99.90
26336;DHT22;14047;50.936;4.654;2023-03-01T00:53:59;-0.70;99.90
26336;DHT22;14047;50.936;4.654;2023-03-01T00:56:26;-0.80;99.90
26336;DHT22;14047;50.936;4.654;2023-03-01T00:58:53;-0.80;99.90
26336;DHT22;14047;50.936;4.654;2023-03-01T01:01:21;-0.80;99.90
26336;DHT22;14047;50.936;4.654;2023-03-01T01:04:03;-0.80;99.90
26336;DHT22;14047;50.936;4.654;2023-03-01T01:06:38;-0.80;99.90
26336;DHT22;14047;50.936;4.654;2023-03-01T01:09:07;-0.90;99.90
26336;DHT22;14047;50.936;4.654;2023-03-01T01:11:34;-0.90;99.90
26336;DHT22;14047;50.936;4.654;2023-03-01T01:14:03;-0.90;99.90
26336;DHT22;14047;50.936;4.654;2023-03-01T01:16:29;-0.90;99.90
26336;DHT22;14047;50.936;4.654;2023-03-01T01:18:56;-0.90;99.90
26336;DHT22;14047;50.936;4.654;2023-03-01T01:21:23;-0.90;99.90
26336;DHT22;14047;50.936;4.654;2023-03-01T01:23:51;-0.90;99.90
26336;DHT22;14047;50.936;4.654;2023-03-01T01:26:23;-0.90;99.90
26336;DHT22;14047;50.936;4.654;2023-03-01T01:28:50;-0.90;99.90
26336;DHT22;14047;50.936;4.654;2023-03-01T01:31:17;-0.90;99.90
26336;DHT22;14047;50.936;4.654;2023-03-01T01:33:43;-1.00;99.90
26336;DHT22;14047;50.936;4.654;2023-03-01T01:36:09;-0.90;99.90
26336;DHT22;14047;50.936;4.654;2023-03-01T01:38:37;-1.00;99.90
26336;DHT22;14047;50.936;4.654;2023-03-01T01:41:04;-1.00;99.90
26336;DHT22;14047;50.936;4.654;2023-03-01T01:43:36;-1.00;99.90
26336;DHT22;14047;50.936;4.654;2023-03-01T01:48:43;-1.00;99.90
26336;DHT22;14047;50.936;4.654;2023-03-01T01:51:19;-1.00;99.90
26336;DHT22;14047;50.936;4.654;2023-03-01T01:53:50;-1.00;99.90
26336;DHT22;14047;50.936;4.654;2023-03-01T01:56:17;-1.00;99.90
26336;DHT22;14047;50.936;4.654;2023-03-01T01:58:44;-1.10;99.90
26336;DHT22;14047;50.936;4.654;2023-03-01T02:01:11;-1.10;99.90
26336;DHT22;14047;50.936;4.654;2023-03-01T02:03:39;-1.10;99.90
26336;DHT22;14047;50.936;4.654;2023-03-01T02:06:38;-1.20;99.90
26336;DHT22;14047;50.936;4.654;2023-03-01T02:09:10;-1.20;99.90
26336;DHT22;14047;50.936;4.654;2023-03-01T02:11:37;-1.20;99.90
26336;DHT22;14047;50.936;4.654;2023-03-01T02:14:03;-1.20;99.90
26336;DHT22;14047;50.936;4.654;2023-03-01T02:16:30;-1.30;99.90
26336;DHT22;14047;50.936;4.654;2023-03-01T02:18:57;-1.30;99.90
26336;DHT22;14047;50.936;4.654;2023-03-01T02:22:10;-1.30;99.90
26336;DHT22;14047;50.936;4.654;2023-03-01T02:24:34;-1.30;99.90
26336;DHT22;14047;50.936;4.654;2023-03-01T02:27:01;-1.50;99.90
26336;DHT22;14047;50.936;4.654;2023-03-01T02:29:28;-1.60;99.90
26336;DHT22;14047;50.936;4.654;2023-03-01T02:31:56;-1.50;99.90
26336;DHT22;14047;50.936;4.654;2023-03-01T02:34:25;-1.60;99.90
26336;DHT22;14047;50.936;4.654;2023-03-01T02:37:13;-1.60;99.90
26336;DHT22;14047;50.936;4.654;2023-03-01T02:39:46;-1.50;99.90
26336;DHT22;14047;50.936;4.654;2023-03-01T02:42:17;-1.40;99.90
26336;DHT22;14047;50.936;4.654;2023-03-01T02:44:44;-1.40;99.90
26336;DHT22;14047;50.936;4.654;2023-03-01T02:47:10;-1.40;99.90
26336;DHT22;14047;50.936;4.654;2023-03-01T02:49:37;-1.40;99.90
26336;DHT22;14047;50.936;4.654;2023-03-01T02:52:43;-1.40;99.90
26336;DHT22;14047;50.936;4.654;2023-03-01T02:55:14;-1.40;99.90
26336;DHT22;14047;50.936;4.654;2023-03-01T02:57:43;-1.40;99.90
26336;DHT22;14047;50.936;4.654;2023-03-01T03:00:16;-1.50;99.90
26336;DHT22;14047;50.936;4.654;2023-03-01T03:02:49;-1.50;99.90
26336;DHT22;14047;50.936;4.654;2023-03-01T03:05:29;-1.50;99.90
26336;DHT22;14047;50.936;4.654;2023-03-01T03:07:58;-1.50;99.90
26336;DHT22;14047;50.936;4.654;2023-03-01T03:10:34;-1.60;99.90
26336;DHT22;14047;50.936;4.654;2023-03-01T03:13:04;-1.60;99.90
26336;DHT22;14047;50.936;4.654;2023-03-01T03:15:31;-1.70;99.90
26336;DHT22;14047;50.936;4.654;2023-03-01T03:17:58;-1.70;99.90
26336;DHT22;14047;50.936;4.654;2023-03-01T03:20:27;-1.70;99.90
26336;DHT22;14047;50.936;4.654;2023-03-01T03:22:56;-1.70;99.90
26336;DHT22;14047;50.936;4.654;2023-03-01T03:25:22;-1.80;99.90
26336;DHT22;14047;50.936;4.654;2023-03-01T03:27:51;-1.80;99.90
26336;DHT22;14047;50.936;4.654;2023-03-01T03:30:24;-1.80;99.90
26336;DHT22;14047;50.936;4.654;2023-03-01T03:32:50;-1.90;99.90
26336;DHT22;14047;50.936;4.654;2023-03-01T03:38:20;-1.90;99.90
26336;DHT22;14047;50.936;4.654;2023-03-01T03:40:49;-1.80;99.90
26336;DHT22;14047;50.936;4.654;2023-03-01T03:43:21;-1.80;99.90
26336;DHT22;14047;50.936;4.654;2023-03-01T03:45:50;-2.00;99.90
26336;DHT22;14047;50.936;4.654;2023-03-01T03:48:16;-1.90;99.90
26336;DHT22;14047;50.936;4.654;2023-03-01T03:50:48;-1.80;99.90
26336;DHT22;14047;50.936;4.654;2023-03-01T03:53:15;-1.70;99.90
26336;DHT22;14047;50.936;4.654;2023-03-01T03:55:41;-1.70;99.90
26336;DHT22;14047;50.936;4.654;2023-03-01T03:58:08;-1.70;99.90
26336;DHT22;14047;50.936;4.654;2023-03-01T04:00:37;-1.60;99.90
26336;DHT22;14047;50.936;4.654;2023-03-01T04:03:03;-1.60;99.90
26336;DHT22;14047;50.936;4.654;2023-03-01T04:05:30;-1.50;99.90
26336;DHT22;14047;50.936;4.654;2023-03-01T04:07:56;-1.50;99.90
26336;DHT22;14047;50.936;4.654;2023-03-01T04:10:30;-1.50;99.90
26336;DHT22;14047;50.936;4.654;2023-03-01T04:12:56;-1.50;99.90
26336;DHT22;14047;50.936;4.654;2023-03-01T04:15:24;-1.40;99.90
26336;DHT22;14047;50.936;4.654;2023-03-01T04:17:52;-1.40;99.90
26336;DHT22;14047;50.936;4.654;2023-03-01T04:20:24;-1.50;99.90
26336;DHT22;14047;50.936;4.654;2023-03-01T04:22:52;-1.60;99.90
26336;DHT22;14047;50.936;4.654;2023-03-01T04:25:23;-1.70;99.90
26336;DHT22;14047;50.936;4.654;2023-03-01T04:27:52;-2.00;99.90
26336;DHT22;14047;50.936;4.654;2023-03-01T04:30:17;-2.00;99.90
26336;DHT22;14047;50.936;4.654;2023-03-01T04:32:43;-2.00;99.90
26336;DHT22;14047;50.936;4.654;2023-03-01T04:35:09;-2.00;99.90
26336;DHT22;14047;50.936;4.654;2023-03-01T04:37:35;-2.10;99.90
26336;DHT22;14047;50.936;4.654;2023-03-01T04:40:02;-2.10;99.90
26336;DHT22;14047;50.936;4.654;2023-03-01T04:42:41;-2.00;99.90
26336;DHT22;14047;50.936;4.654;2023-03-01T04:45:08;-2.00;99.90
26336;DHT22;14047;50.936;4.654;2023-03-01T04:47:40;-2.10;99.90
26336;DHT22;14047;50.936;4.654;2023-03-01T04:50:07;-2.00;99.90
26336;DHT22;14047;50.936;4.654;2023-03-01T04:52:33;-2.10;99.90
26336;DHT22;14047;50.936;4.654;2023-03-01T04:54:59;-2.20;99.90
26336;DHT22;14047;50.936;4.654;2023-03-01T04:57:25;-2.20;99.90
26336;DHT22;14047;50.936;4.654;2023-03-01T04:59:51;-2.10;99.90
26336;DHT22;14047;50.936;4.654;2023-03-01T05:02:17;-2.00;99.90
26336;DHT22;14047;50.936;4.654;2023-03-01T05:04:43;-2.00;99.90
26336;DHT22;14047;50.936;4.654;2023-03-01T05:07:09;-2.00;99.90
26336;DHT22;14047;50.936;4.654;2023-03-01T05:09:35;-2.00;99.90
26336;DHT22;14047;50.936;4.654;2023-03-01T05:12:01;-1.80;99.90
26336;DHT22;14047;50.936;4.654;2023-03-01T05:14:27;-1.80;99.90
26336;DHT22;14047;50.936;4.654;2023-03-01T05:16:54;-1.80;99.90
26336;DHT22;14047;50.936;4.654;2023-03-01T05:19:20;-1.80;99.90
26336;DHT22;14047;50.936;4.654;2023-03-01T05:21:48;-1.80;99.90
26336;DHT22;14047;50.936;4.654;2023-03-01T05:24:31;-1.80;99.90
26336;DHT22;14047;50.936;4.654;2023-03-01T05:26:58;-1.80;99.90
26336;DHT22;14047;50.936;4.654;2023-03-01T05:29:25;-1.80;99.90
26336;DHT22;14047;50.936;4.654;2023-03-01T05:31:53;-1.90;99.90
26336;DHT22;14047;50.936;4.654;2023-03-01T05:34:24;-1.90;99.90
26336;DHT22;14047;50.936;4.654;2023-03-01T05:36:52;-1.90;99.90
26336;DHT22;14047;50.936;4.654;2023-03-01T05:39:26;-1.80;99.90
26336;DHT22;14047;50.936;4.654;2023-03-01T05:41:54;-2.00;99.90
26336;DHT22;14047;50.936;4.654;2023-03-01T05:44:20;-2.10;99.90
26336;DHT22;14047;50.936;4.654;2023-03-01T05:46:47;-2.10;99.90
26336;DHT22;14047;50.936;4.654;2023-03-01T05:49:13;-2.00;99.90
26336;DHT22;14047;50.936;4.654;2023-03-01T05:51:40;-1.90;99.90
26336;DHT22;14047;50.936;4.654;2023-03-01T05:54:07;-1.90;99.90
26336;DHT22;14047;50.936;4.654;2023-03-01T05:56:34;-2.00;99.90
26336;DHT22;14047;50.936;4.654;2023-03-01T05:59:01;-1.90;99.90
26336;DHT22;14047;50.936;4.654;2023-03-01T06:01:27;-1.90;99.90
26336;DHT22;14047;50.936;4.654;2023-03-01T06:03:53;-1.90;99.90
26336;DHT22;14047;50.936;4.654;2023-03-01T06:06:19;-1.80;99.90
26336;DHT22;14047;50.936;4.654;2023-03-01T06:08:45;-1.80;99.90
26336;DHT22;14047;50.936;4.654;2023-03-01T06:11:11;-2.00;99.90
26336;DHT22;14047;50.936;4.654;2023-03-01T06:13:37;-2.00;99.90
26336;DHT22;14047;50.936;4.654;2023-03-01T06:16:06;-2.10;99.90
26336;DHT22;14047;50.936;4.654;2023-03-01T06:18:32;-2.10;99.90
26336;DHT22;14047;50.936;4.654;2023-03-01T06:20:58;-2.00;99.90
26336;DHT22;14047;50.936;4.654;2023-03-01T06:23:25;-2.00;99.90
26336;DHT22;14047;50.936;4.654;2023-03-01T06:25:51;-1.90;99.90
26336;DHT22;14047;50.936;4.654;2023-03-01T06:28:17;-1.90;99.90
26336;DHT22;14047;50.936;4.654;2023-03-01T06:30:43;-1.90;99.90
26336;DHT22;14047;50.936;4.654;2023-03-01T06:33:09;-1.90;99.90
26336;DHT22;14047;50.936;4.654;2023-03-01T06:35:36;-1.90;99.90
26336;DHT22;14047;50.936;4.654;2023-03-01T06:38:03;-2.00;99.90
26336;DHT22;14047;50.936;4.654;2023-03-01T06:40:30;-2.10;99.90
26336;DHT22;14047;50.936;4.654;2023-03-01T06:42:57;-2.10;99.90
26336;DHT22;14047;50.936;4.654;2023-03-01T06:45:24;-2.10;99.90
26336;DHT22;14047;50.936;4.654;2023-03-01T06:47:50;-2.20;99.90
26336;DHT22;14047;50.936;4.654;2023-03-01T06:50:17;-2.20;99.90
26336;DHT22;14047;50.936;4.654;2023-03-01T06:52:43;-2.20;99.90
26336;DHT22;14047;50.936;4.654;2023-03-01T06:55:12;-2.20;99.90
26336;DHT22;14047;50.936;4.654;2023-03-01T06:57:38;-2.20;99.90
26336;DHT22;14047;50.936;4.654;2023-03-01T07:00:04;-2.20;99.90
26336;DHT22;14047;50.936;4.654;2023-03-01T07:02:31;-2.20;99.90
26336;DHT22;14047;50.936;4.654;2023-03-01T07:04:57;-2.20;99.90
26336;DHT22;14047;50.936;4.654;2023-03-01T07:07:23;-2.20;99.90
26336;DHT22;14047;50.936;4.654;2023-03-01T07:09:49;-2.20;99.90
26336;DHT22;14047;50.936;4.654;2023-03-01T07:12:16;-2.10;99.90
26336;DHT22;14047;50.936;4.654;2023-03-01T07:14:43;-2.10;99.90
26336;DHT22;14047;50.936;4.654;2023-03-01T07:17:09;-2.00;99.90
26336;DHT22;14047;50.936;4.654;2023-03-01T07:19:35;-2.00;99.90
26336;DHT22;14047;50.936;4.654;2023-03-01T07:22:03;-2.00;99.90
26336;DHT22;14047;50.936;4.654;2023-03-01T07:24:29;-1.90;99.90
26336;DHT22;14047;50.936;4.654;2023-03-01T07:26:55;-1.80;99.90
26336;DHT22;14047;50.936;4.654;2023-03-01T07:29:21;-1.70;99.90
26336;DHT22;14047;50.936;4.654;2023-03-01T07:31:47;-1.70;99.90
26336;DHT22;14047;50.936;4.654;2023-03-01T07:34:13;-1.70;99.90
26336;DHT22;14047;50.936;4.654;2023-03-01T07:36:39;-1.70;99.90
26336;DHT22;14047;50.936;4.654;2023-03-01T07:39:10;-1.60;99.90
26336;DHT22;14047;50.936;4.654;2023-03-01T07:41:37;-1.60;99.90
26336;DHT22;14047;50.936;4.654;2023-03-01T07:44:03;-1.50;99.90
26336;DHT22;14047;50.936;4.654;2023-03-01T07:46:30;-1.50;99.90
26336;DHT22;14047;50.936;4.654;2023-03-01T07:48:56;-1.40;99.90
26336;DHT22;14047;50.936;4.654;2023-03-01T07:51:23;-1.40;99.90
26336;DHT22;14047;50.936;4.654;2023-03-01T07:53:49;-1.20;99.90
26336;DHT22;14047;50.936;4.654;2023-03-01T07:56:17;-1.20;99.90
26336;DHT22;14047;50.936;4.654;2023-03-01T07:58:44;-1.10;99.90
26336;DHT22;14047;50.936;4.654;2023-03-01T08:01:13;-1.00;99.90
26336;DHT22;14047;50.936;4.654;2023-03-01T08:03:40;-0.80;99.90
26336;DHT22;14047;50.936;4.654;2023-03-01T08:06:08;-0.90;99.90
26336;DHT22;14047;50.936;4.654;2023-03-01T08:08:36;-0.90;99.90
26336;DHT22;14047;50.936;4.654;2023-03-01T08:11:04;-0.80;99.90
26336;DHT22;14047;50.936;4.654;2023-03-01T08:13:30;-0.60;99.90
26336;DHT22;14047;50.936;4.654;2023-03-01T08:16:07;-0.50;99.90
26336;DHT22;14047;50.936;4.654;2023-03-01T08:18:33;-0.40;99.90
26336;DHT22;14047;50.936;4.654;2023-03-01T08:21:07;-0.40;99.90
26336;DHT22;14047;50.936;4.654;2023-03-01T08:23:34;-0.20;99.90
26336;DHT22;14047;50.936;4.654;2023-03-01T08:26:14;0.00;99.90
26336;DHT22;14047;50.936;4.654;2023-03-01T08:28:41;-0.20;99.90
26336;DHT22;14047;50.936;4.654;2023-03-01T08:31:22;-0.20;99.90
26336;DHT22;14047;50.936;4.654;2023-03-01T08:33:50;0.00;99.90
26336;DHT22;14047;50.936;4.654;2023-03-01T08:36:30;0.10;99.90
26336;DHT22;14047;50.936;4.654;2023-03-01T08:38:57;0.40;99.90
26336;DHT22;14047;50.936;4.654;2023-03-01T08:41:23;0.40;99.90
26336;DHT22;14047;50.936;4.654;2023-03-01T08:43:49;0.50;99.90
26336;DHT22;14047;50.936;4.654;2023-03-01T08:46:15;0.60;99.90
26336;DHT22;14047;50.936;4.654;2023-03-01T08:48:41;0.50;99.90
26336;DHT22;14047;50.936;4.654;2023-03-01T08:51:13;0.60;99.90
26336;DHT22;14047;50.936;4.654;2023-03-01T08:53:40;0.50;99.90
26336;DHT22;14047;50.936;4.654;2023-03-01T08:56:07;0.60;99.90
26336;DHT22;14047;50.936;4.654;2023-03-01T08:58:33;0.70;99.90
26336;DHT22;14047;50.936;4.654;2023-03-01T09:00:59;0.90;99.90
26336;DHT22;14047;50.936;4.654;2023-03-01T09:03:26;0.90;99.90
26336;DHT22;14047;50.936;4.654;2023-03-01T09:05:52;1.00;99.90
26336;DHT22;14047;50.936;4.654;2023-03-01T09:08:19;1.00;99.90
26336;DHT22;14047;50.936;4.654;2023-03-01T09:10:45;1.20;99.90
26336;DHT22;14047;50.936;4.654;2023-03-01T09:13:11;1.40;99.90
26336;DHT22;14047;50.936;4.654;2023-03-01T09:15:38;1.60;99.90
26336;DHT22;14047;50.936;4.654;2023-03-01T09:18:05;1.70;99.90
26336;DHT22;14047;50.936;4.654;2023-03-01T09:20:31;1.90;99.90
26336;DHT22;14047;50.936;4.654;2023-03-01T09:22:57;1.90;99.90
26336;DHT22;14047;50.936;4.654;2023-03-01T09:25:24;1.90;99.90
26336;DHT22;14047;50.936;4.654;2023-03-01T09:27:54;1.90;99.90
26336;DHT22;14047;50.936;4.654;2023-03-01T09:30:22;2.10;99.90
26336;DHT22;14047;50.936;4.654;2023-03-01T09:32:48;2.00;99.90
26336;DHT22;14047;50.936;4.654;2023-03-01T09:35:14;2.00;99.90
26336;DHT22;14047;50.936;4.654;2023-03-01T09:37:40;2.30;99.90
26336;DHT22;14047;50.936;4.654;2023-03-01T09:40:24;2.60;99.90
26336;DHT22;14047;50.936;4.654;2023-03-01T09:43:02;2.50;99.90
26336;DHT22;14047;50.936;4.654;2023-03-01T09:45:37;2.40;99.90
26336;DHT22;14047;50.936;4.654;2023-03-01T09:48:11;2.50;99.90
26336;DHT22;14047;50.936;4.654;2023-03-01T09:50:41;2.40;99.90
26336;DHT22;14047;50.936;4.654;2023-03-01T09:53:21;2.60;99.90
26336;DHT22;14047;50.936;4.654;2023-03-01T09:55:55;2.70;99.90
26336;DHT22;14047;50.936;4.654;2023-03-01T09:58:59;3.00;99.90
26336;DHT22;14047;50.936;4.654;2023-03-01T10:01:40;3.20;99.90
26336;DHT22;14047;50.936;4.654;2023-03-01T10:04:12;3.30;99.90
26336;DHT22;14047;50.936;4.654;2023-03-01T10:06:41;3.40;99.90
26336;DHT22;14047;50.936;4.654;2023-03-01T10:09:16;3.50;99.90
26336;DHT22;14047;50.936;4.654;2023-03-01T10:11:47;3.70;99.90
26336;DHT22;14047;50.936;4.654;2023-03-01T10:14:29;3.80;99.90
26336;DHT22;14047;50.936;4.654;2023-03-01T10:17:21;4.00;99.90
26336;DHT22;14047;50.936;4.654;2023-03-01T10:19:50;4.10;99.90
26336;DHT22;14047;50.936;4.654;2023-03-01T10:22:16;4.20;99.90
26336;DHT22;14047;50.936;4.654;2023-03-01T10:24:44;4.30;99.90
26336;DHT22;14047;50.936;4.654;2023-03-01T10:30:13;4.10;99.90
26336;DHT22;14047;50.936;4.654;2023-03-01T10:32:43;4.00;99.90
26336;DHT22;14047;50.936;4.654;2023-03-01T10:37:57;3.90;99.90
26336;DHT22;14047;50.936;4.654;2023-03-01T10:40:24;3.80;99.90
26336;DHT22;14047;50.936;4.654;2023-03-01T10:42:50;3.80;99.90
26336;DHT22;14047;50.936;4.654;2023-03-01T10:45:22;3.90;99.90
26336;DHT22;14047;50.936;4.654;2023-03-01T10:50:48;4.50;99.90
26336;DHT22;14047;50.936;4.654;2023-03-01T10:55:59;4.70;99.90
26336;DHT22;14047;50.936;4.654;2023-03-01T10:58:26;4.90;99.90
26336;DHT22;14047;50.936;4.654;2023-03-01T11:01:01;5.00;99.90
26336;DHT22;14047;50.936;4.654;2023-03-01T11:03:31;5.10;99.90
26336;DHT22;14047;50.936;4.654;2023-03-01T11:06:00;4.90;99.90
26336;DHT22;14047;50.936;4.654;2023-03-01T11:08:45;4.50;99.90
26336;DHT22;14047;50.936;4.654;2023-03-01T11:11:14;4.50;99.90
26336;DHT22;14047;50.936;4.654;2023-03-01T11:16:36;4.60;99.90
26336;DHT22;14047;50.936;4.654;2023-03-01T11:24:36;4.60;99.90
26336;DHT22;14047;50.936;4.654;2023-03-01T11:27:07;4.60;99.90
26336;DHT22;14047;50.936;4.654;2023-03-01T11:29:41;4.60;99.90
26336;DHT22;14047;50.936;4.654;2023-03-01T11:32:11;4.70;99.90
26336;DHT22;14047;50.936;4.654;2023-03-01T11:37:40;4.80;99.90
26336;DHT22;14047;50.936;4.654;2023-03-01T11:40:15;5.00;99.90
26336;DHT22;14047;50.936;4.654;2023-03-01T11:45:15;5.50;99.90
26336;DHT22;14047;50.936;4.654;2023-03-01T11:47:51;5.60;99.90
26336;DHT22;14047;50.936;4.654;2023-03-01T11:50:26;5.50;99.90
26336;DHT22;14047;50.936;4.654;2023-03-01T11:53:24;5.70;99.90
26336;DHT22;14047;50.936;4.654;2023-03-01T11:58:38;5.50;99.90
26336;DHT22;14047;50.936;4.654;2023-03-01T12:01:40;5.70;99.90
26336;DHT22;14047;50.936;4.654;2023-03-01T12:10:26;5.50;99.90
26336;DHT22;14047;50.936;4.654;2023-03-01T12:18:25;6.00;99.90
26336;DHT22;14047;50.936;4.654;2023-03-01T12:21:38;6.00;99.90
26336;DHT22;14047;50.936;4.654;2023-03-01T12:29:52;6.20;99.90
26336;DHT22;14047;50.936;4.654;2023-03-01T12:37:56;6.20;99.90
26336;DHT22;14047;50.936;4.654;2023-03-01T12:40:34;6.40;99.90
26336;DHT22;14047;50.936;4.654;2023-03-01T12:48:46;6.30;99.90
26336;DHT22;14047;50.936;4.654;2023-03-01T12:51:20;6.20;99.90
26336;DHT22;14047;50.936;4.654;2023-03-01T12:53:51;6.00;99.90
26336;DHT22;14047;50.936;4.654;2023-03-01T12:56:21;6.10;99.90
26336;DHT22;14047;50.936;4.654;2023-03-01T13:02:09;6.40;99.90
26336;DHT22;14047;50.936;4.654;2023-03-01T13:05:46;6.60;99.90
26336;DHT22;14047;50.936;4.654;2023-03-01T13:08:12;7.00;99.90
26336;DHT22;14047;50.936;4.654;2023-03-01T13:11:00;6.90;99.90
26336;DHT22;14047;50.936;4.654;2023-03-01T13:13:28;6.60;99.90
26336;DHT22;14047;50.936;4.654;2023-03-01T13:15:55;6.50;99.90
26336;DHT22;14047;50.936;4.654;2023-03-01T13:20:55;6.60;99.90
26336;DHT22;14047;50.936;4.654;2023-03-01T13:33:58;7.00;99.90
26336;DHT22;14047;50.936;4.654;2023-03-01T13:38:59;6.80;99.90
26336;DHT22;14047;50.936;4.654;2023-03-01T13:44:37;7.00;99.90
26336;DHT22;14047;50.936;4.654;2023-03-01T13:47:14;6.80;99.90
26336;DHT22;14047;50.936;4.654;2023-03-01T13:49:56;6.90;99.90
26336;DHT22;14047;50.936;4.654;2023-03-01T13:52:48;6.90;99.90
26336;DHT22;14047;50.936;4.654;2023-03-01T13:57:57;7.10;99.90
26336;DHT22;14047;50.936;4.654;2023-03-01T14:00:42;7.00;99.90
26336;DHT22;14047;50.936;4.654;2023-03-01T14:03:19;6.70;99.90
26336;DHT22;14047;50.936;4.654;2023-03-01T14:06:08;6.70;99.90
26336;DHT22;14047;50.936;4.654;2023-03-01T14:08:37;6.50;99.90
26336;DHT22;14047;50.936;4.654;2023-03-01T14:17:49;6.70;99.90
26336;DHT22;14047;50.936;4.654;2023-03-01T14:20:23;6.80;99.90
26336;DHT22;14047;50.936;4.654;2023-03-01T14:22:53;6.90;99.90
26336;DHT22;14047;50.936;4.654;2023-03-01T14:25:33;7.00;99.90
26336;DHT22;14047;50.936;4.654;2023-03-01T14:28:19;7.00;99.90
26336;DHT22;14047;50.936;4.654;2023-03-01T14:30:51;6.80;99.90
26336;DHT22;14047;50.936;4.654;2023-03-01T14:36:13;6.70;99.90
26336;DHT22;14047;50.936;4.654;2023-03-01T14:38:41;6.80;99.90
26336;DHT22;14047;50.936;4.654;2023-03-01T14:43:56;6.90;99.90
26336;DHT22;14047;50.936;4.654;2023-03-01T14:46:34;7.00;99.90
26336;DHT22;14047;50.936;4.654;2023-03-01T14:51:38;7.20;99.90
26336;DHT22;14047;50.936;4.654;2023-03-01T14:54:23;7.30;99.90
26336;DHT22;14047;50.936;4.654;2023-03-01T14:56:51;7.40;99.90
26336;DHT22;14047;50.936;4.654;2023-03-01T14:59:22;7.30;99.90
26336;DHT22;14047;50.936;4.654;2023-03-01T15:01:50;7.30;99.90
26336;DHT22;14047;50.936;4.654;2023-03-01T15:04:18;7.50;99.90
26336;DHT22;14047;50.936;4.654;2023-03-01T15:06:45;7.60;99.90
26336;DHT22;14047;50.936;4.654;2023-03-01T15:09:15;7.50;99.90
26336;DHT22;14047;50.936;4.654;2023-03-01T15:11:43;7.60;99.90
26336;DHT22;14047;50.936;4.654;2023-03-01T15:14:26;7.40;99.90
26336;DHT22;14047;50.936;4.654;2023-03-01T15:16:53;7.50;99.90
26336;DHT22;14047;50.936;4.654;2023-03-01T15:19:20;7.80;99.90
26336;DHT22;14047;50.936;4.654;2023-03-01T15:21:50;7.70;99.90
26336;DHT22;14047;50.936;4.654;2023-03-01T15:24:34;7.40;99.90
26336;DHT22;14047;50.936;4.654;2023-03-01T15:27:02;7.30;99.90
26336;DHT22;14047;50.936;4.654;2023-03-01T15:29:33;7.50;99.90
26336;DHT22;14047;50.936;4.654;2023-03-01T15:32:31;7.90;99.90
26336;DHT22;14047;50.936;4.654;2023-03-01T15:35:00;7.80;99.90
26336;DHT22;14047;50.936;4.654;2023-03-01T15:37:47;7.90;99.90
26336;DHT22;14047;50.936;4.654;2023-03-01T15:40:28;7.70;99.90
26336;DHT22;14047;50.936;4.654;2023-03-01T15:42:58;7.60;99.90
26336;DHT22;14047;50.936;4.654;2023-03-01T15:45:26;7.50;99.90
26336;DHT22;14047;50.936;4.654;2023-03-01T15:47:58;7.50;99.90
26336;DHT22;14047;50.936;4.654;2023-03-01T15:50:29;7.50;99.90
26336;DHT22;14047;50.936;4.654;2023-03-01T15:52:59;7.50;99.90
26336;DHT22;14047;50.936;4.654;2023-03-01T15:55:28;8.10;99.90
26336;DHT22;14047;50.936;4.654;2023-03-01T16:00:41;8.60;99.90
26336;DHT22;14047;50.936;4.654;2023-03-01T16:03:08;8.80;99.90
26336;DHT22;14047;50.936;4.654;2023-03-01T16:05:38;9.10;99.90
26336;DHT22;14047;50.936;4.654;2023-03-01T16:08:05;9.70;99.90
26336;DHT22;14047;50.936;4.654;2023-03-01T16:10:32;9.60;99.90
26336;DHT22;14047;50.936;4.654;2023-03-01T16:12:59;9.60;99.90
26336;DHT22;14047;50.936;4.654;2023-03-01T16:15:28;9.20;99.90
26336;DHT22;14047;50.936;4.654;2023-03-01T16:17:54;8.80;99.90
26336;DHT22;14047;50.936;4.654;2023-03-01T16:20:24;8.90;99.90
26336;DHT22;14047;50.936;4.654;2023-03-01T16:22:51;8.60;99.90
26336;DHT22;14047;50.936;4.654;2023-03-01T16:25:19;9.00;99.90
26336;DHT22;14047;50.936;4.654;2023-03-01T16:27:47;9.00;99.90
26336;DHT22;14047;50.936;4.654;2023-03-01T16:30:19;8.90;99.90
26336;DHT22;14047;50.936;4.654;2023-03-01T16:32:47;8.30;99.90
26336;DHT22;14047;50.936;4.654;2023-03-01T16:35:16;8.10;99.90
26336;DHT22;14047;50.936;4.654;2023-03-01T16:37:43;7.80;99.90
26336;DHT22;14047;50.936;4.654;2023-03-01T16:40:20;7.50;99.90
26336;DHT22;14047;50.936;4.654;2023-03-01T16:42:47;7.90;99.90
26336;DHT22;14047;50.936;4.654;2023-03-01T16:45:13;8.10;99.90
26336;DHT22;14047;50.936;4.654;2023-03-01T16:47:39;7.80;99.90
26336;DHT22;14047;50.936;4.654;2023-03-01T16:50:05;7.80;99.90
26336;DHT22;14047;50.936;4.654;2023-03-01T16:52:33;7.80;99.90
26336;DHT22;14047;50.936;4.654;2023-03-01T16:54:59;7.70;99.90
26336;DHT22;14047;50.936;4.654;2023-03-01T16:57:25;7.50;99.90
26336;DHT22;14047;50.936;4.654;2023-03-01T16:59:52;7.10;99.90
26336;DHT22;14047;50.936;4.654;2023-03-01T17:02:21;6.70;99.90
26336;DHT22;14047;50.936;4.654;2023-03-01T17:04:54;6.40;99.90
26336;DHT22;14047;50.936;4.654;2023-03-01T17:07:21;6.20;99.90
26336;DHT22;14047;50.936;4.654;2023-03-01T17:09:48;6.00;99.90
26336;DHT22;14047;50.936;4.654;2023-03-01T17:12:14;6.00;99.90
26336;DHT22;14047;50.936;4.654;2023-03-01T17:14:41;5.90;99.90
26336;DHT22;14047;50.936;4.654;2023-03-01T17:17:11;6.00;99.90
26336;DHT22;14047;50.936;4.654;2023-03-01T17:19:37;5.90;99.90
26336;DHT22;14047;50.936;4.654;2023-03-01T17:22:10;5.70;99.90
26336;DHT22;14047;50.936;4.654;2023-03-01T17:24:39;5.80;99.90
26336;DHT22;14047;50.936;4.654;2023-03-01T17:27:06;5.70;99.90
26336;DHT22;14047;50.936;4.654;2023-03-01T17:29:33;5.60;99.90
26336;DHT22;14047;50.936;4.654;2023-03-01T17:31:59;5.60;99.90
26336;DHT22;14047;50.936;4.654;2023-03-01T17:34:25;5.50;99.90
26336;DHT22;14047;50.936;4.654;2023-03-01T17:36:51;5.40;99.90
26336;DHT22;14047;50.936;4.654;2023-03-01T17:39:18;5.30;99.90
26336;DHT22;14047;50.936;4.654;2023-03-01T17:41:53;5.40;99.90